Letzte erfasste Runde: Florian Becker - 1:57.955 - Porsche 992 GT3 Cup - Nürburgring - Grand Prix - 27.07.2022 21:44:40
Platz Datum Fahrer Zeit Diff S1 S2 S3 Fahrzeug Session Runden
- - Theoretische Bestzeit 1:47.370 - 35.043 37.569 34.758 - - -
1 09.08.2021 Jura Petritchenko 1:47.391 - 35.043 37.569 34.779 Porsche 911 II GT3 R (2019) Qualifying 32
2 09.08.2021 René Sievert 1:47.667 0.276 35.058 37.851 34.758 BMW M6 GT3 Qualifying 39
3 09.08.2021 Jakob Ostermann 1:47.829 0.438 35.175 37.746 34.908 McLaren 720S GT3 (Special) Qualifying 4
4 09.08.2021 Max Bischoff 1:47.916 0.525 35.253 37.695 34.968 McLaren 720S GT3 (Special) Qualifying 13
5 09.08.2021 Alexander Polt 1:48.009 0.618 35.202 37.797 35.010 Porsche 911 II GT3 R (2019) Qualifying 32
6 09.08.2021 Dominik Alvarez 1:48.099 0.708 35.313 37.893 34.893 Mercedes-Benz AMG GT3 2020 Qualifying 11
7 09.08.2021 Florian Dührkop 1:48.156 0.765 35.334 37.905 34.917 Mercedes-Benz AMG GT3 2020 Qualifying 11
8 09.08.2021 Björn Hensen 1:48.309 0.918 35.349 37.860 35.100 AMR V8 Vantage (2019) Qualifying 13
9 09.08.2021 Oliver Gehler 1:48.585 1.194 35.352 38.139 35.094 Ferrari 488 GT3 Evo 2020 Qualifying 3
10 09.08.2021 Luis Roters 1:48.786 1.395 35.514 38.031 35.241 AMR V8 Vantage (2019) Qualifying 18
11 09.08.2021 Daniel Amhof 1:48.861 1.470 35.544 38.016 35.301 Porsche 911 II GT3 R (2019) Qualifying 18
12 09.08.2021 Marvin Weil 1:48.876 1.485 35.631 37.932 35.313 Ferrari 488 GT3 Evo 2020 Qualifying 6
13 09.08.2021 Stefan Krähling 1:48.915 1.524 35.358 38.142 35.415 Audi R8 LMS Evo (2019) Qualifying 8
14 09.08.2021 Marc Press 1:48.975 1.584 35.337 38.211 35.427 Lamborghini Huracan Evo (2019) Qualifying 12
15 09.08.2021 Maximilian Prahl 1:49.296 1.905 35.598 38.133 35.565 Mercedes-Benz AMG GT3 2020 Qualifying 16
16 09.08.2021 Andre Oschmann 1:49.308 1.917 35.475 38.454 35.379 AMR V8 Vantage (2019) Qualifying 7
17 09.08.2021 Nils Unger 1:49.320 1.929 35.478 38.253 35.589 Lamborghini Huracan Evo (2019) Qualifying 20
18 09.08.2021 Michi Hirczy 1:49.335 1.944 35.514 38.112 35.709 Ferrari 488 GT3 Evo 2020 Qualifying 14
19 09.08.2021 Mike Bugla 1:49.359 1.968 35.658 38.208 35.493 Lexus RC F GT3 Qualifying 7
20 09.08.2021 Steffen Materna 1:49.464 2.073 35.619 38.343 35.502 Ferrari 488 GT3 Evo 2020 Qualifying 13
21 09.08.2021 Volker Jarschel 1:49.527 2.136 35.577 38.394 35.556 Bentley Continental GT3 2018 Qualifying 24
22 09.08.2021 Christopher Lütt 1:49.530 2.139 35.625 38.418 35.487 AMR V8 Vantage (2019) Qualifying 2
23 09.08.2021 Benni Galle 1:49.608 2.217 35.619 38.400 35.589 Audi R8 LMS Evo (2019) Qualifying 30
24 09.08.2021 Yannic-Marvin Schild 1:49.860 2.469 35.637 38.394 35.829 Ferrari 488 GT3 Evo 2020 Qualifying 26
25 09.08.2021 Sebastian Roth 1:50.004 2.613 35.625 38.676 35.703 Audi R8 LMS Evo (2019) Qualifying 2
26 09.08.2021 Roland Bakele 1:50.037 2.646 35.673 38.724 35.640 AMR V8 Vantage (2019) Practice 20
27 09.08.2021 Dennis Manojlovic 1:50.124 2.733 35.907 38.508 35.709 AMR V8 Vantage (2019) Qualifying 4
28 09.08.2021 Mario Abend 1:50.136 2.745 35.712 38.583 35.841 McLaren 720S GT3 (Special) Qualifying 5
29 09.08.2021 Tommy Heinze 1:50.139 2.748 35.871 38.472 35.796 Mercedes-Benz AMG GT3 2020 Qualifying 9
30 09.08.2021 Heiko Schmiedeberg 1:50.175 2.784 35.940 38.646 35.589 Ferrari 488 GT3 Evo 2020 Qualifying 3
31 09.08.2021 Albert Gorocz 1:50.247 2.856 35.391 38.973 35.883 BMW M6 GT3 Practice 7
32 09.08.2021 Thorsten Kestel 1:50.265 2.874 35.763 38.748 35.754 Mercedes-Benz AMG GT3 2020 Qualifying 6
33 09.08.2021 Christian Richter 1:50.268 2.877 35.823 38.715 35.730 Bentley Continental GT3 2018 Qualifying 4
34 09.08.2021 Sandro Conradi 1:50.286 2.895 35.706 38.640 35.940 Porsche 911 II GT3 R (2019) Practice 1
35 09.08.2021 Josef Pirchheim 1:50.322 2.931 36.009 38.547 35.766 Bentley Continental GT3 2018 Qualifying 22
36 09.08.2021 Zoltan Vastag 1:50.337 2.946 35.778 38.781 35.778 Lamborghini Huracan Evo (2019) Qualifying 9
37 09.08.2021 Sven Petschow 1:50.355 2.964 35.709 38.565 36.081 Porsche 911 II GT3 R (2019) Qualifying 55
38 09.08.2021 Dirk Nees 1:50.370 2.979 35.835 38.670 35.865 Porsche 911 II GT3 R (2019) Qualifying 6
39 09.08.2021 Marcel Rödiger 1:50.487 3.096 35.766 38.886 35.835 Nissan GT R Nismo GT3 2018 Qualifying 12
40 09.08.2021 Tobias Arendt | Mulchian 1:50.496 3.105 35.766 38.670 36.060 Nissan GT R Nismo GT3 2018 Qualifying 4
41 09.08.2021 Michael Seyfert 1:50.643 3.252 36.159 38.730 35.754 AMR V8 Vantage (2019) Qualifying 2
42 09.08.2021 Sebastian Senkbeil 1:50.787 3.396 35.868 39.042 35.877 AMR V8 Vantage (2019) Qualifying 11
43 09.08.2021 Jonas Coesfeld 1:51.027 3.636 36.339 38.775 35.913 Porsche 911 II GT3 R (2019) Qualifying 1
44 09.08.2021 Rainer Langkau 1:51.039 3.648 35.823 39.051 36.165 Audi R8 LMS Evo (2019) Qualifying 13
45 09.08.2021 Marc Hägele 1:51.132 3.741 36.117 38.895 36.120 Porsche 911 II GT3 R (2019) Qualifying 9
46 09.08.2021 Sören Berentzen 1:51.381 3.990 35.895 38.964 36.522 Ferrari 488 GT3 Evo 2020 Qualifying 1
47 09.08.2021 Michael Pregartner 1:51.423 4.032 36.141 39.126 36.156 Lamborghini Huracan Evo (2019) Qualifying 12
48 09.08.2021 Frank Schlott 1:56.106 8.715 37.530 40.920 37.656 Audi R8 LMS Evo (2019) Qualifying 1

SERVER

0 / 61
virtualracing.org #1 GTM
Training 1Lime Rock Park -- Uphill Chicane
0 / 81
virtualracing.org #3 FS
Training 1Lime Rock Park -- Uphill Chicane
0 / 81
virtualracing.org #4 LSM
Training 1Spa-Francorchamps Endurance
0 / 34
virtualracing.org #5 VRF1S
Training 1Barcelona 2021
0 / 34
virtualracing.org #6 VRCS
Training 1Donington Park National Circuit
0 / 81
virtualracing.org #P1 BTCC
Training 1Donington GP
0 / 81
virtualracing.org #P2 CA
Training 1Anglesey Circuit - International GP
0 / 34
virtualracing.org #P3 Mini
Training 1Donington GP
0 / 104
virtualracing.org VRES L
TesttagNuerburgring -- rF2LN 24h
0 / 104
virtualracing.org VRES T
TesttagNuerburgring -- rF2LN 24h
0/31
virtualracing.org#4 GTC Training Standard
TrainingCircuito de Jerez - GP
0/31
virtualracing.org#5 GTC Training A
TrainingDaytona International Speedway - Road Course
0/16
virtualracing.org#30 ALT Training
Trainingaa_dover_speedway-nh